createdAt,value
2019-04-01T00:00:45.754Z,99.90
2019-04-01T00:03:14.479Z,99.90
2019-04-01T00:05:43.284Z,99.90
2019-04-01T00:08:12.000Z,99.90
2019-04-01T00:10:40.661Z,99.90
2019-04-01T00:13:09.870Z,99.90
2019-04-01T00:15:38.535Z,99.90
2019-04-01T00:18:07.174Z,99.90
2019-04-01T00:20:35.815Z,99.90
2019-04-01T00:23:04.713Z,99.90
2019-04-01T00:25:33.486Z,99.90
2019-04-01T00:28:02.205Z,99.90
2019-04-01T00:30:30.860Z,99.90
2019-04-01T00:32:59.497Z,99.90
2019-04-01T00:35:28.153Z,99.90
2019-04-01T00:37:57.042Z,99.90
2019-04-01T00:40:25.699Z,99.90
2019-04-01T00:43:05.658Z,99.90
2019-04-01T00:45:35.048Z,99.90
2019-04-01T00:48:03.688Z,99.90
2019-04-01T00:50:32.587Z,99.90
2019-04-01T00:53:01.336Z,99.90
2019-04-01T00:55:30.008Z,99.90
2019-04-01T00:57:58.691Z,99.90
2019-04-01T01:00:27.462Z,99.90
2019-04-01T01:02:56.255Z,99.90
2019-04-01T01:05:24.933Z,99.90
2019-04-01T01:07:53.598Z,99.90
2019-04-01T01:10:22.311Z,99.90
2019-04-01T01:12:51.044Z,99.90
2019-04-01T01:15:20.024Z,99.90
2019-04-01T01:17:48.922Z,99.90
2019-04-01T01:20:17.564Z,99.90
2019-04-01T01:22:46.239Z,99.90
2019-04-01T01:25:14.888Z,99.90
2019-04-01T01:27:43.528Z,99.90
2019-04-01T01:30:12.439Z,99.90
2019-04-01T01:32:41.117Z,99.90
2019-04-01T01:35:10.309Z,99.90
2019-04-01T01:37:38.969Z,99.90
2019-04-01T01:40:08.043Z,99.90
2019-04-01T01:42:55.980Z,99.90
2019-04-01T01:45:43.893Z,99.90
2019-04-01T01:48:32.041Z,99.90
2019-04-01T01:51:19.947Z,99.90
2019-04-01T01:54:00.309Z,99.90
2019-04-01T01:56:41.049Z,99.90
2019-04-01T01:59:21.745Z,99.90
2019-04-01T02:02:02.380Z,99.90
2019-04-01T02:04:42.746Z,99.90
2019-04-01T02:07:23.588Z,99.90
2019-04-01T02:10:04.335Z,99.90
2019-04-01T02:12:45.075Z,99.90
2019-04-01T02:15:25.828Z,99.90
2019-04-01T02:18:06.613Z,99.90
2019-04-01T02:20:47.463Z,99.90
2019-04-01T02:23:28.012Z,99.90
2019-04-01T02:26:08.511Z,99.90
2019-04-01T02:28:49.265Z,99.90
2019-04-01T02:31:30.052Z,99.90
2019-04-01T02:34:11.004Z,99.90
2019-04-01T02:36:51.694Z,99.90
2019-04-01T02:39:32.425Z,99.90
2019-04-01T02:42:13.354Z,99.90
2019-04-01T02:44:54.060Z,99.90
2019-04-01T02:47:34.533Z,99.90
2019-04-01T02:50:15.296Z,99.90
2019-04-01T02:52:56.218Z,99.90
2019-04-01T02:55:36.861Z,99.90
2019-04-01T02:58:17.432Z,99.90
2019-04-01T03:00:58.246Z,99.90
2019-04-01T03:03:39.049Z,99.90
2019-04-01T03:06:20.039Z,99.90
2019-04-01T03:09:00.662Z,99.90
2019-04-01T03:11:41.178Z,99.90
2019-04-01T03:14:22.012Z,99.90
2019-04-01T03:17:02.878Z,99.90
2019-04-01T03:19:43.685Z,99.90
2019-04-01T03:22:24.252Z,99.90
2019-04-01T03:25:04.859Z,99.90
2019-04-01T03:27:45.608Z,99.90
2019-04-01T03:30:26.330Z,99.90
2019-04-01T03:33:07.216Z,99.90
2019-04-01T03:35:47.965Z,99.90
2019-04-01T03:38:28.890Z,99.90
2019-04-01T03:41:09.836Z,99.90
2019-04-01T03:43:50.979Z,99.90
2019-04-01T03:46:31.568Z,99.90
2019-04-01T03:49:12.322Z,99.90
2019-04-01T03:51:52.906Z,99.90
2019-04-01T03:54:33.693Z,99.90
2019-04-01T03:57:14.541Z,99.90
2019-04-01T03:59:55.287Z,99.90
2019-04-01T04:02:35.871Z,99.90
2019-04-01T04:05:16.682Z,99.90
2019-04-01T04:07:57.408Z,99.90
2019-04-01T04:10:38.317Z,99.90
2019-04-01T04:13:18.840Z,99.90
2019-04-01T04:15:59.876Z,99.90
2019-04-01T04:18:40.403Z,99.90
2019-04-01T04:21:23.789Z,99.90
2019-04-01T04:24:03.939Z,99.90
2019-04-01T04:26:44.642Z,99.90
2019-04-01T04:29:25.363Z,99.90
2019-04-01T04:32:06.093Z,99.90
2019-04-01T04:34:46.768Z,99.90
2019-04-01T04:37:27.808Z,99.90
2019-04-01T04:40:08.075Z,99.90
2019-04-01T04:42:48.668Z,99.90
2019-04-01T04:45:29.359Z,99.90
2019-04-01T04:48:09.957Z,99.90
2019-04-01T04:50:50.821Z,99.90
2019-04-01T04:53:31.312Z,99.90
2019-04-01T04:56:12.141Z,99.90
2019-04-01T04:58:52.519Z,99.90
2019-04-01T05:01:32.973Z,99.90
2019-04-01T05:04:13.435Z,99.90
2019-04-01T05:06:54.140Z,99.90
2019-04-01T05:09:34.981Z,99.90
2019-04-01T05:12:15.754Z,99.90
2019-04-01T05:14:56.315Z,99.90
2019-04-01T05:17:37.152Z,99.90
2019-04-01T05:20:17.939Z,99.90
2019-04-01T05:22:58.494Z,99.90
2019-04-01T05:25:39.201Z,99.90
2019-04-01T05:28:19.899Z,99.90
2019-04-01T05:31:00.389Z,99.90
2019-04-01T05:33:54.561Z,99.90
2019-04-01T05:36:23.349Z,99.90
2019-04-01T05:39:05.962Z,99.90
2019-04-01T05:41:46.771Z,99.90
2019-04-01T05:44:27.267Z,99.90
2019-04-01T05:47:08.081Z,99.90
2019-04-01T05:49:49.298Z,99.90
2019-04-01T05:52:29.800Z,99.90
2019-04-01T05:55:10.502Z,99.90
2019-04-01T05:57:51.046Z,99.90
2019-04-01T06:03:40.592Z,99.90
2019-04-01T06:06:21.144Z,99.90
2019-04-01T06:09:02.296Z,99.90
2019-04-01T06:11:42.877Z,99.90
2019-04-01T06:14:23.354Z,99.90
2019-04-01T06:17:04.188Z,99.90
2019-04-01T06:19:44.734Z,99.90
2019-04-01T06:22:25.291Z,99.90
2019-04-01T06:25:05.931Z,99.90
2019-04-01T06:27:46.846Z,99.90
2019-04-01T06:30:27.503Z,99.90
2019-04-01T06:33:08.352Z,99.90
2019-04-01T06:35:48.804Z,99.90
2019-04-01T06:38:29.623Z,99.90
2019-04-01T06:41:10.480Z,99.90
2019-04-01T06:43:51.194Z,99.90
2019-04-01T06:46:31.612Z,99.90
2019-04-01T06:49:12.421Z,99.90
2019-04-01T06:51:53.152Z,99.90
2019-04-01T06:54:33.893Z,99.90
2019-04-01T06:57:14.600Z,99.90
2019-04-01T06:59:55.592Z,99.90
2019-04-01T07:02:36.448Z,99.90
2019-04-01T07:05:17.235Z,99.90
2019-04-01T07:07:57.887Z,99.90
2019-04-01T07:10:38.287Z,99.90
2019-04-01T07:13:19.020Z,99.90
2019-04-01T07:16:14.336Z,99.90
2019-04-01T07:18:42.585Z,99.90
2019-04-01T07:21:23.245Z,99.90
2019-04-01T07:24:03.967Z,99.90
2019-04-01T07:26:47.344Z,99.90
2019-04-01T07:29:26.353Z,99.90
2019-04-01T07:32:14.659Z,99.90
2019-04-01T07:35:04.080Z,99.90
2019-04-01T07:37:52.231Z,99.90
2019-04-01T07:40:40.232Z,99.90
2019-04-01T07:43:48.832Z,99.90
2019-04-01T07:46:36.757Z,99.90
2019-04-01T07:49:24.665Z,99.90
2019-04-01T07:52:12.805Z,99.90
2019-04-01T07:54:53.164Z,99.90
2019-04-01T07:57:33.629Z,99.90
2019-04-01T08:00:14.662Z,99.90
2019-04-01T08:02:55.260Z,99.90
2019-04-01T08:05:36.144Z,99.90
2019-04-01T08:08:17.132Z,99.90
2019-04-01T08:10:57.608Z,99.90
2019-04-01T08:13:38.526Z,99.90
2019-04-01T08:16:19.340Z,99.90
2019-04-01T08:19:00.198Z,99.90
2019-04-01T08:21:41.101Z,99.90
2019-04-01T08:24:21.796Z,99.90
2019-04-01T08:27:02.606Z,99.90
2019-04-01T08:29:43.377Z,99.90
2019-04-01T08:32:24.205Z,99.90
2019-04-01T08:35:04.840Z,99.90
2019-04-01T08:37:45.552Z,99.90
2019-04-01T08:40:26.364Z,99.90
2019-04-01T08:43:07.104Z,99.90
2019-04-01T08:45:47.956Z,99.90
2019-04-01T08:48:28.553Z,99.90
2019-04-01T08:51:09.163Z,99.90
2019-04-01T08:53:49.808Z,99.90
2019-04-01T08:59:29.644Z,99.90
2019-04-01T09:02:17.654Z,99.90
2019-04-01T09:04:52.957Z,99.90
2019-04-01T09:07:33.532Z,99.90
2019-04-01T09:10:14.223Z,99.90
2019-04-01T09:12:55.025Z,99.90
2019-04-01T09:15:35.591Z,99.90
2019-04-01T09:18:16.332Z,99.90
2019-04-01T09:20:57.060Z,99.90
2019-04-01T09:23:37.724Z,99.90
2019-04-01T09:26:18.358Z,99.90
2019-04-01T09:28:59.288Z,99.90
2019-04-01T09:31:39.902Z,99.90
2019-04-01T09:34:20.504Z,99.90
2019-04-01T09:37:00.844Z,99.90
2019-04-01T09:39:41.649Z,99.90
2019-04-01T09:42:22.459Z,99.90
2019-04-01T09:45:03.227Z,99.90
2019-04-01T09:47:43.553Z,99.90
2019-04-01T09:50:24.253Z,99.90
2019-04-01T09:53:05.122Z,99.90
2019-04-01T09:55:46.290Z,99.90
2019-04-01T09:58:26.819Z,99.90
2019-04-01T10:01:07.599Z,99.90
2019-04-01T10:03:48.335Z,99.90
2019-04-01T10:06:29.136Z,99.90
2019-04-01T10:09:09.817Z,99.90
2019-04-01T10:11:50.536Z,99.90
2019-04-01T10:14:31.160Z,99.90
2019-04-01T10:17:11.932Z,99.90
2019-04-01T10:19:52.736Z,99.90
2019-04-01T10:22:33.303Z,99.90
2019-04-01T10:25:14.061Z,99.90
2019-04-01T10:27:54.665Z,99.90
2019-04-01T10:30:35.216Z,99.90
2019-04-01T10:33:15.868Z,99.90
2019-04-01T10:35:56.504Z,99.90
2019-04-01T10:38:37.256Z,99.90
2019-04-01T10:41:17.831Z,98.90
2019-04-01T10:43:58.656Z,98.80
2019-04-01T10:46:40.846Z,95.80
2019-04-01T10:49:22.178Z,97.00
2019-04-01T10:52:02.921Z,98.20
2019-04-01T10:54:43.429Z,98.00
2019-04-01T10:57:24.078Z,97.40
2019-04-01T11:00:04.759Z,96.60
2019-04-01T11:02:45.217Z,96.70
2019-04-01T11:05:26.166Z,97.00
2019-04-01T11:08:06.898Z,97.10
2019-04-01T11:10:47.810Z,96.70
2019-04-01T11:13:28.328Z,97.40
2019-04-01T11:16:08.973Z,97.70
2019-04-01T11:18:49.705Z,97.80
2019-04-01T11:21:30.402Z,95.90
2019-04-01T11:24:11.111Z,96.90
2019-04-01T11:26:52.032Z,97.50
2019-04-01T11:29:32.602Z,95.20
2019-04-01T11:32:13.849Z,94.90
2019-04-01T11:34:56.257Z,94.10
2019-04-01T11:37:37.394Z,94.30
2019-04-01T11:40:18.116Z,91.80
2019-04-01T11:42:58.896Z,91.90
2019-04-01T11:45:39.572Z,88.10
2019-04-01T11:48:20.285Z,84.70
2019-04-01T11:51:00.958Z,85.70
2019-04-01T11:53:41.537Z,86.00
2019-04-01T11:56:22.262Z,77.40
2019-04-01T11:59:02.806Z,67.70
2019-04-01T12:01:43.578Z,66.20
2019-04-01T12:04:24.221Z,64.90
2019-04-01T12:07:05.081Z,63.00
2019-04-01T12:09:46.000Z,59.60
2019-04-01T12:12:26.853Z,57.00
2019-04-01T12:15:11.540Z,57.20
2019-04-01T12:17:50.337Z,58.40
2019-04-01T12:20:30.979Z,56.90
2019-04-01T12:23:11.587Z,56.20
2019-04-01T12:25:52.327Z,56.60
2019-04-01T12:28:36.424Z,56.80
2019-04-01T12:31:15.132Z,56.90
2019-04-01T12:33:55.848Z,54.90
2019-04-01T12:36:36.762Z,50.90
2019-04-01T12:39:17.707Z,50.90
2019-04-01T12:42:00.844Z,50.30
2019-04-01T12:44:41.600Z,45.60
2019-04-01T12:47:22.448Z,45.00
2019-04-01T12:50:03.549Z,46.70
2019-04-01T12:52:44.303Z,48.20
2019-04-01T12:55:25.183Z,47.70
2019-04-01T12:58:06.039Z,47.30
2019-04-01T13:00:46.702Z,48.30
2019-04-01T13:03:27.507Z,44.50
2019-04-01T13:06:08.353Z,44.90
2019-04-01T13:08:49.109Z,44.60
2019-04-01T13:11:29.812Z,43.40
2019-04-01T13:14:10.496Z,43.00
2019-04-01T13:16:51.871Z,43.20
2019-04-01T13:19:33.059Z,44.40
2019-04-01T13:22:13.794Z,43.80
2019-04-01T13:24:54.596Z,42.50
2019-04-01T13:27:35.436Z,41.90
2019-04-01T13:30:16.333Z,41.90
2019-04-01T13:32:57.081Z,40.70
2019-04-01T13:35:39.764Z,39.30
2019-04-01T13:38:20.759Z,40.50
2019-04-01T13:41:01.190Z,41.30
2019-04-01T13:43:42.042Z,41.80
2019-04-01T13:46:23.629Z,41.80
2019-04-01T13:49:04.867Z,42.10
2019-04-01T13:51:45.839Z,39.70
2019-04-01T13:54:20.298Z,39.00
2019-04-01T13:56:48.938Z,39.40
2019-04-01T13:59:17.888Z,40.20
2019-04-01T14:01:46.614Z,39.50
2019-04-01T14:04:15.323Z,39.50
2019-04-01T14:06:43.984Z,40.40
2019-04-01T14:09:12.628Z,40.50
2019-04-01T14:11:41.305Z,39.80
2019-04-01T14:14:09.955Z,40.30
2019-04-01T14:16:41.358Z,39.70
2019-04-01T14:19:08.952Z,41.80
2019-04-01T14:21:37.583Z,41.40
2019-04-01T14:24:06.235Z,41.50
2019-04-01T14:26:34.978Z,41.10
2019-04-01T14:29:03.643Z,41.70
2019-04-01T14:31:32.336Z,42.00
2019-04-01T14:34:01.264Z,41.50
2019-04-01T14:36:30.109Z,41.30
2019-04-01T14:38:58.756Z,41.20
2019-04-01T14:41:27.415Z,41.00
2019-04-01T14:43:56.064Z,41.40
2019-04-01T14:46:24.720Z,41.70
2019-04-01T14:48:53.373Z,41.50
2019-04-01T14:51:22.020Z,40.70
2019-04-01T14:53:50.788Z,41.10
2019-04-01T14:56:19.444Z,41.60
2019-04-01T14:58:48.097Z,41.90
2019-04-01T15:01:16.851Z,42.90
2019-04-01T15:03:45.617Z,42.40
2019-04-01T15:06:14.256Z,41.70
2019-04-01T15:08:43.232Z,41.70
2019-04-01T15:11:12.445Z,42.60
2019-04-01T15:13:41.748Z,42.80
2019-04-01T15:16:10.444Z,42.80
2019-04-01T15:18:39.109Z,42.60
2019-04-01T15:21:11.356Z,42.70
2019-04-01T15:23:39.080Z,43.20
2019-04-01T15:26:07.880Z,43.00
2019-04-01T15:28:36.531Z,43.40
2019-04-01T15:31:05.259Z,42.70
2019-04-01T15:33:33.904Z,42.60
2019-04-01T15:36:04.221Z,42.30
2019-04-01T15:38:33.118Z,42.10
2019-04-01T15:41:01.795Z,43.20
2019-04-01T15:43:30.504Z,43.70
2019-04-01T15:45:59.160Z,42.90
2019-04-01T15:48:27.901Z,42.90
2019-04-01T15:50:56.565Z,42.40
2019-04-01T15:53:25.283Z,42.90
2019-04-01T15:55:53.979Z,42.60
2019-04-01T15:58:22.596Z,43.20
2019-04-01T16:00:51.326Z,42.90
2019-04-01T16:03:20.320Z,43.60
2019-04-01T16:05:49.312Z,43.50
2019-04-01T16:08:18.224Z,43.80
2019-04-01T16:10:46.966Z,43.90
2019-04-01T16:13:15.611Z,44.10
2019-04-01T16:15:44.316Z,44.50
2019-04-01T16:18:13.063Z,43.70
2019-04-01T16:20:41.821Z,43.90
2019-04-01T16:23:10.494Z,44.60
2019-04-01T16:25:39.136Z,45.20
2019-04-01T16:28:07.869Z,46.20
2019-04-01T16:30:36.532Z,45.30
2019-04-01T16:33:05.254Z,45.30
2019-04-01T16:35:33.918Z,44.60
2019-04-01T16:38:02.642Z,45.10
2019-04-01T16:40:31.335Z,45.40
2019-04-01T16:42:59.998Z,45.40
2019-04-01T16:45:28.679Z,45.40
2019-04-01T16:47:57.348Z,45.50
2019-04-01T16:50:28.725Z,45.90
2019-04-01T16:52:58.279Z,47.00
2019-04-01T16:55:27.290Z,46.90
2019-04-01T16:57:56.308Z,47.10
2019-04-01T17:00:26.079Z,46.90
2019-04-01T17:02:54.969Z,47.40
2019-04-01T17:05:29.248Z,48.10
2019-04-01T17:07:58.061Z,48.90
2019-04-01T17:10:27.292Z,48.90
2019-04-01T17:12:56.246Z,49.40
2019-04-01T17:15:24.996Z,50.00
2019-04-01T17:17:53.729Z,49.50
2019-04-01T17:20:22.398Z,49.50
2019-04-01T17:22:51.043Z,49.00
2019-04-01T17:25:19.779Z,49.10
2019-04-01T17:27:48.449Z,49.60
2019-04-01T17:30:17.352Z,49.90
2019-04-01T17:32:46.074Z,50.00
2019-04-01T17:35:15.166Z,50.30
2019-04-01T17:37:43.851Z,50.60
2019-04-01T17:40:16.894Z,50.90
2019-04-01T17:42:45.445Z,51.00
2019-04-01T17:45:30.495Z,51.10
2019-04-01T17:48:00.618Z,51.40
2019-04-01T17:50:29.548Z,51.70
2019-04-01T17:52:58.247Z,51.90
2019-04-01T17:55:27.153Z,52.20
2019-04-01T17:57:55.824Z,52.40
2019-04-01T18:00:25.994Z,52.20
2019-04-01T18:02:54.800Z,52.20
2019-04-01T18:05:23.511Z,52.10
2019-04-01T18:07:52.179Z,52.50
2019-04-01T18:10:21.096Z,52.60
2019-04-01T18:12:49.855Z,52.80
2019-04-01T18:15:20.665Z,53.00
2019-04-01T18:17:49.280Z,53.10
2019-04-01T18:20:19.996Z,53.30
2019-04-01T18:22:48.652Z,53.40
2019-04-01T18:25:17.539Z,53.60
2019-04-01T18:27:46.200Z,53.60
2019-04-01T18:30:16.730Z,53.70
2019-04-01T18:32:45.516Z,53.80
2019-04-01T18:35:14.608Z,53.70
2019-04-01T18:37:43.234Z,54.10
2019-04-01T18:40:12.256Z,54.30
2019-04-01T18:42:40.900Z,54.90
2019-04-01T18:45:09.942Z,55.20
2019-04-01T18:47:39.223Z,56.70
2019-04-01T18:50:08.248Z,56.60
2019-04-01T18:52:38.169Z,56.70
2019-04-01T18:55:08.178Z,56.80
2019-04-01T18:57:36.980Z,56.70
2019-04-01T19:00:07.195Z,57.00
2019-04-01T19:02:35.843Z,56.80
2019-04-01T19:05:04.863Z,57.00
2019-04-01T19:07:35.309Z,57.10
2019-04-01T19:10:06.525Z,56.80
2019-04-01T19:12:35.897Z,56.90
2019-04-01T19:15:06.483Z,57.00
2019-04-01T19:17:35.253Z,56.70
2019-04-01T19:20:04.883Z,56.80
2019-04-01T19:22:33.852Z,57.00
2019-04-01T19:25:02.560Z,57.20
2019-04-01T19:27:31.260Z,57.40
2019-04-01T19:29:59.936Z,57.50
2019-04-01T19:32:28.632Z,57.70
2019-04-01T19:34:57.644Z,58.10
2019-04-01T19:37:27.262Z,58.20
2019-04-01T19:39:56.175Z,58.40
2019-04-01T19:42:24.885Z,58.40
2019-04-01T19:44:53.608Z,58.70
2019-04-01T19:47:22.259Z,58.90
2019-04-01T19:49:50.969Z,59.20
2019-04-01T19:52:19.639Z,59.30
2019-04-01T19:54:48.292Z,59.50
2019-04-01T19:57:20.115Z,59.80
2019-04-01T19:59:48.820Z,59.80
2019-04-01T20:02:17.460Z,60.20
2019-04-01T20:04:46.097Z,60.60
2019-04-01T20:07:15.273Z,61.10
2019-04-01T20:09:46.217Z,61.30
2019-04-01T20:12:15.137Z,61.80
2019-04-01T20:14:43.781Z,62.30
2019-04-01T20:17:12.777Z,62.60
2019-04-01T20:19:41.431Z,63.00
2019-04-01T20:22:10.120Z,63.50
2019-04-01T20:24:39.126Z,64.10
2019-04-01T20:27:08.065Z,64.50
2019-04-01T20:29:36.771Z,65.40
2019-04-01T20:32:16.610Z,65.60
2019-04-01T20:34:35.905Z,66.00
2019-04-01T20:37:04.651Z,66.30
2019-04-01T20:39:33.276Z,66.70
2019-04-01T20:42:01.938Z,67.20
2019-04-01T20:44:30.580Z,67.70
2019-04-01T20:46:59.364Z,68.50
2019-04-01T20:49:28.284Z,68.90
2019-04-01T20:51:56.914Z,69.50
2019-04-01T20:54:25.580Z,69.90
2019-04-01T20:56:54.422Z,70.70
2019-04-01T20:59:23.068Z,71.40
2019-04-01T21:01:51.756Z,72.10
2019-04-01T21:04:20.694Z,73.20
2019-04-01T21:06:50.192Z,73.80
2019-04-01T21:09:19.205Z,74.00
2019-04-01T21:11:47.941Z,74.50
2019-04-01T21:14:16.669Z,75.20
2019-04-01T21:16:45.312Z,76.50
2019-04-01T21:19:13.988Z,76.90
2019-04-01T21:21:42.646Z,77.70
2019-04-01T21:24:11.300Z,78.30
2019-04-01T21:26:39.944Z,79.10
2019-04-01T21:29:08.961Z,80.00
2019-04-01T21:31:37.644Z,81.30
2019-04-01T21:34:07.796Z,82.30
2019-04-01T21:36:37.183Z,82.90
2019-04-01T21:39:07.326Z,84.10
2019-04-01T21:41:36.409Z,85.10
2019-04-01T21:44:05.212Z,86.50
2019-04-01T21:46:33.848Z,87.40
2019-04-01T21:49:02.526Z,88.50
2019-04-01T21:51:31.216Z,89.30
2019-04-01T21:54:01.741Z,90.30
2019-04-01T21:56:30.468Z,90.50
2019-04-01T21:58:59.115Z,91.20
2019-04-01T22:01:27.832Z,91.70
2019-04-01T22:03:56.500Z,92.20
2019-04-01T22:06:25.141Z,92.70
2019-04-01T22:08:53.819Z,93.10
2019-04-01T22:11:22.751Z,93.70
2019-04-01T22:13:51.420Z,94.20
2019-04-01T22:16:20.152Z,94.50
2019-04-01T22:18:48.820Z,95.00
2019-04-01T22:21:17.450Z,95.40
2019-04-01T22:23:46.113Z,96.30
2019-04-01T22:26:14.764Z,96.50
2019-04-01T22:28:43.455Z,97.10
2019-04-01T22:31:12.128Z,97.60
2019-04-01T22:33:41.116Z,98.40
2019-04-01T22:36:11.244Z,99.60
2019-04-01T22:38:40.104Z,99.90
2019-04-01T22:41:08.747Z,99.90
2019-04-01T22:43:37.420Z,99.90
2019-04-01T22:46:06.078Z,99.90
2019-04-01T22:48:34.713Z,99.90
2019-04-01T22:51:03.666Z,99.90
2019-04-01T22:53:33.291Z,99.90
2019-04-01T22:56:02.284Z,99.90
2019-04-01T22:58:31.197Z,99.90
2019-04-01T23:00:59.892Z,99.90
2019-04-01T23:03:28.534Z,99.90
2019-04-01T23:06:00.948Z,99.90
2019-04-01T23:08:31.051Z,99.90
2019-04-01T23:10:59.901Z,99.90
2019-04-01T23:13:28.590Z,99.90
2019-04-01T23:15:57.725Z,99.90
2019-04-01T23:18:26.709Z,99.90
2019-04-01T23:20:55.440Z,99.90
2019-04-01T23:23:24.384Z,99.90
2019-04-01T23:25:53.053Z,99.90
2019-04-01T23:28:21.762Z,99.90
2019-04-01T23:30:50.560Z,99.90
2019-04-01T23:33:19.225Z,99.90
2019-04-01T23:35:47.944Z,99.90
2019-04-01T23:38:16.590Z,99.90
2019-04-01T23:40:45.257Z,99.90
2019-04-01T23:43:13.907Z,99.90
2019-04-01T23:45:43.146Z,99.90
2019-04-01T23:48:11.820Z,99.90
2019-04-01T23:50:40.564Z,99.90
2019-04-01T23:53:09.211Z,99.90
2019-04-01T23:55:37.876Z,99.90
2019-04-01T23:58:06.541Z,99.90
